Time;durP1;ratioP1;P1;durP2;ratioP2;P2;SDS_P1;SDS_P2;PMS_P1;PMS_P2;Temp;Humidity;BMP_temperature;BMP_pressure;BME280_temperature;BME280_humidity;BME280_pressure;Samples;Min_cycle;Max_cycle;Signal;HPM_P1;HPM_P2
2022/11/08 00:04:06;;;;;;;11.27;7.97;;;12.40;99.90;;;;;;5085093;28;20460;-68
2022/11/08 00:14:49;;;;;;;9.70;8.00;;;12.30;99.90;;;;;;5097260;28;20970;-68
2022/11/08 00:17:18;;;;;;;12.87;8.50;;;12.30;99.90;;;;;;5095947;28;20469;-69
2022/11/08 00:19:45;;;;;;;8.60;8.00;;;12.30;99.90;;;;;;5100798;28;20473;-68
2022/11/08 00:22:13;;;;;;;10.83;9.73;;;12.30;99.90;;;;;;5096752;28;20683;-68
2022/11/08 00:24:40;;;;;;;9.57;8.30;;;12.20;99.90;;;;;;5095193;28;20473;-68
2022/11/08 00:27:11;;;;;;;9.63;8.50;;;12.10;99.90;;;;;;5100330;28;21006;-68
2022/11/08 00:29:38;;;;;;;11.17;8.10;;;12.00;99.90;;;;;;5097830;28;20468;-67
2022/11/08 00:32:07;;;;;;;12.00;8.10;;;12.00;99.90;;;;;;5096906;28;20995;-69
2022/11/08 00:34:35;;;;;;;8.97;8.10;;;11.90;99.90;;;;;;5098732;28;20470;-68
2022/11/08 00:37:02;;;;;;;7.97;7.20;;;11.90;99.90;;;;;;5093436;28;20965;-70
2022/11/08 00:39:30;;;;;;;9.10;8.17;;;11.90;99.90;;;;;;5096380;28;20465;-68
2022/11/08 00:41:57;;;;;;;8.67;7.87;;;11.90;99.90;;;;;;5097547;28;20453;-70
2022/11/08 00:44:25;;;;;;;13.10;6.87;;;12.00;99.90;;;;;;5099482;28;20819;-68
2022/11/08 00:46:52;;;;;;;9.50;7.33;;;12.00;99.90;;;;;;5091497;28;20453;-68
2022/11/08 00:49:20;;;;;;;8.50;7.90;;;12.10;99.90;;;;;;5096147;28;20454;-71
2022/11/08 00:51:47;;;;;;;10.53;7.60;;;12.10;99.90;;;;;;5098770;28;20491;-68
2022/11/08 00:54:15;;;;;;;7.87;7.10;;;12.20;99.90;;;;;;5092745;28;21045;-68
2022/11/08 00:56:43;;;;;;;8.00;7.37;;;12.10;99.90;;;;;;5094044;28;20468;-69
2022/11/08 00:59:11;;;;;;;8.50;7.70;;;12.00;99.90;;;;;;5096277;28;20538;-68
2022/11/08 01:01:40;;;;;;;9.70;8.13;;;12.00;99.90;;;;;;5099712;28;20881;-68
2022/11/08 01:04:09;;;;;;;8.97;8.17;;;12.00;99.90;;;;;;5097360;28;20466;-67
2022/11/08 01:06:36;;;;;;;9.03;7.80;;;11.90;99.90;;;;;;5100857;28;20822;-70
2022/11/08 01:09:04;;;;;;;8.70;7.90;;;11.90;99.90;;;;;;5097520;28;20453;-69
2022/11/08 01:11:32;;;;;;;9.23;8.33;;;11.80;99.90;;;;;;5099740;28;20837;-70
2022/11/08 01:14:01;;;;;;;9.80;8.97;;;11.70;99.90;;;;;;5093027;28;20450;-70
2022/11/08 01:16:30;;;;;;;8.50;7.20;;;11.70;99.90;;;;;;5092773;28;20470;-68
2022/11/08 01:19:00;;;;;;;8.10;7.40;;;11.70;99.90;;;;;;5095083;28;20467;-68
2022/11/08 01:21:27;;;;;;;15.77;6.63;;;11.80;99.90;;;;;;5096391;28;20457;-70
2022/11/08 01:23:54;;;;;;;7.70;7.03;;;11.80;99.90;;;;;;5093883;28;21147;-69
2022/11/08 01:26:26;;;;;;;8.87;8.00;;;11.80;99.90;;;;;;5098966;28;20458;-68
2022/11/08 01:28:54;;;;;;;16.10;7.50;;;11.80;99.90;;;;;;5090718;28;20461;-68
2022/11/08 01:31:22;;;;;;;8.13;7.50;;;11.70;99.90;;;;;;5092652;28;20472;-69
2022/11/08 01:33:50;;;;;;;13.53;7.90;;;11.60;99.90;;;;;;5094127;28;20494;-70
2022/11/08 01:36:21;;;;;;;10.03;7.40;;;11.50;99.90;;;;;;5096836;28;20490;-68
2022/11/08 01:38:48;;;;;;;8.57;7.77;;;11.40;99.90;;;;;;5096573;28;20469;-70
2022/11/08 01:41:16;;;;;;;9.47;7.20;;;11.40;99.90;;;;;;5095573;28;20835;-68
2022/11/08 01:43:46;;;;;;;11.63;8.60;;;11.30;99.90;;;;;;5094086;28;20511;-70
2022/11/08 01:46:35;;;;;;;8.57;7.43;;;11.30;99.90;;;;;;5096505;28;20918;-68
2022/11/08 01:49:28;;;;;;;7.93;7.10;;;11.20;99.90;;;;;;5101228;28;20788;-68
2022/11/08 01:52:03;;;;;;;13.37;7.50;;;11.20;99.90;;;;;;5097100;28;20462;-68
2022/11/08 01:54:36;;;;;;;9.23;7.07;;;11.20;99.90;;;;;;5101877;28;20896;-70
2022/11/08 01:57:06;;;;;;;7.97;7.27;;;11.20;99.90;;;;;;5104605;28;20468;-69
2022/11/08 01:59:35;;;;;;;7.50;6.87;;;11.20;99.90;;;;;;5101499;28;20823;-68
2022/11/08 02:02:02;;;;;;;10.07;7.70;;;11.10;99.90;;;;;;5099142;28;20545;-70
2022/11/08 02:04:28;;;;;;;7.87;7.10;;;11.10;99.90;;;;;;5099698;28;20489;-70
2022/11/08 02:06:57;;;;;;;14.03;7.80;;;11.00;99.90;;;;;;5095864;28;20473;-70
2022/11/08 02:09:25;;;;;;;12.90;8.00;;;11.00;99.90;;;;;;5097297;28;20831;-68
2022/11/08 02:11:53;;;;;;;16.40;8.17;;;11.00;99.90;;;;;;5103210;28;21022;-68
2022/11/08 02:14:20;;;;;;;11.23;7.33;;;11.00;99.90;;;;;;5098349;28;20460;-68
2022/11/08 02:16:47;;;;;;;11.77;8.17;;;11.00;99.90;;;;;;5099854;28;20461;-68
2022/11/08 02:19:24;;;;;;;8.40;7.70;;;11.00;99.90;;;;;;5103794;28;20471;-70
2022/11/08 02:21:56;;;;;;;8.53;7.63;;;11.00;99.90;;;;;;5098998;28;20468;-68
2022/11/08 02:24:24;;;;;;;9.93;8.40;;;11.00;99.90;;;;;;5104031;28;21061;-67
2022/11/08 02:26:55;;;;;;;8.23;7.63;;;11.00;99.90;;;;;;5097980;28;20468;-68
2022/11/08 02:29:24;;;;;;;8.47;7.97;;;11.00;99.90;;;;;;5102380;28;20452;-70
2022/11/08 02:31:52;;;;;;;9.57;7.83;;;10.90;99.90;;;;;;5098291;28;20464;-68
2022/11/08 02:34:20;;;;;;;9.60;7.60;;;10.80;99.90;;;;;;5099033;28;20489;-68
2022/11/08 02:36:48;;;;;;;9.07;8.40;;;10.80;99.90;;;;;;5102524;28;20490;-70
2022/11/08 02:39:15;;;;;;;10.37;8.60;;;10.70;99.90;;;;;;5094812;28;20552;-68
2022/11/08 02:41:43;;;;;;;12.73;7.80;;;10.60;99.90;;;;;;5098721;28;20471;-68
2022/11/08 02:44:10;;;;;;;12.27;8.87;;;10.60;99.90;;;;;;5103690;28;20469;-69
2022/11/08 02:46:37;;;;;;;21.17;7.97;;;10.60;99.90;;;;;;5098360;28;20808;-68
2022/11/08 02:49:03;;;;;;;12.50;7.70;;;10.50;99.90;;;;;;5095748;28;20822;-70
2022/11/08 02:51:30;;;;;;;13.90;8.10;;;10.50;99.90;;;;;;5101422;28;20495;-70
2022/11/08 02:53:57;;;;;;;11.10;7.27;;;10.50;99.90;;;;;;5103645;28;20732;-68
2022/11/08 02:56:24;;;;;;;13.17;7.10;;;10.50;99.90;;;;;;5099578;28;20460;-68
2022/11/08 02:58:54;;;;;;;8.73;7.83;;;10.60;99.90;;;;;;5099902;28;20462;-70
2022/11/08 03:01:21;;;;;;;18.13;7.90;;;10.50;99.90;;;;;;5096974;28;20496;-68
2022/11/08 03:03:48;;;;;;;8.33;7.40;;;10.40;99.90;;;;;;5104012;28;21011;-70
2022/11/08 03:06:17;;;;;;;8.63;7.83;;;10.30;99.90;;;;;;5102141;28;20798;-70
2022/11/08 03:08:44;;;;;;;8.93;8.03;;;10.30;99.90;;;;;;5098374;28;20457;-67
2022/11/08 03:11:11;;;;;;;9.57;7.90;;;10.20;99.90;;;;;;5097413;28;21039;-68
2022/11/08 03:13:37;;;;;;;11.63;8.30;;;10.10;99.90;;;;;;5094743;28;20492;-67
2022/11/08 03:16:06;;;;;;;10.50;7.40;;;10.10;99.90;;;;;;5095175;28;20468;-69
2022/11/08 03:18:33;;;;;;;8.07;7.30;;;10.10;99.90;;;;;;5100376;28;20473;-70
2022/11/08 03:21:01;;;;;;;8.10;7.23;;;10.20;99.90;;;;;;5104573;28;21003;-67
2022/11/08 03:23:29;;;;;;;10.07;9.03;;;10.20;99.90;;;;;;5096798;28;20458;-68
2022/11/08 03:25:55;;;;;;;8.23;7.17;;;10.20;99.90;;;;;;5097408;28;20457;-70
2022/11/08 03:28:22;;;;;;;11.63;7.70;;;10.20;99.90;;;;;;5098125;28;20457;-68
2022/11/08 03:30:51;;;;;;;7.87;7.07;;;10.20;99.90;;;;;;5101832;28;20543;-70
2022/11/08 03:33:20;;;;;;;16.27;9.00;;;10.20;99.90;;;;;;5103057;28;20501;-70
2022/11/08 03:35:49;;;;;;;14.33;7.90;;;10.20;99.90;;;;;;5101233;28;20492;-68
2022/11/08 03:38:16;;;;;;;11.20;8.23;;;10.10;99.90;;;;;;5102559;28;20465;-70
2022/11/08 03:40:45;;;;;;;8.50;7.93;;;10.00;99.90;;;;;;5097964;28;20792;-70
2022/11/08 03:43:12;;;;;;;9.00;8.13;;;10.00;99.90;;;;;;5097100;28;20469;-67
2022/11/08 03:45:38;;;;;;;8.87;8.07;;;9.90;99.90;;;;;;5100822;28;20462;-68
2022/11/08 03:48:06;;;;;;;8.80;8.10;;;9.90;99.90;;;;;;5100629;28;20462;-68
2022/11/08 03:50:34;;;;;;;11.00;9.37;;;9.90;99.90;;;;;;5099472;28;20453;-68
2022/11/08 03:53:01;;;;;;;10.03;9.10;;;9.90;99.90;;;;;;5102619;28;20731;-68
2022/11/08 03:55:29;;;;;;;13.40;9.00;;;9.80;99.90;;;;;;5100674;28;20505;-68
2022/11/08 03:57:56;;;;;;;11.00;9.93;;;9.80;99.90;;;;;;5098727;28;20554;-67
2022/11/08 04:00:24;;;;;;;10.40;9.50;;;9.80;99.90;;;;;;5097089;28;20456;-68
2022/11/08 04:02:53;;;;;;;10.20;9.20;;;9.80;99.90;;;;;;5101016;28;20971;-68
2022/11/08 04:05:20;;;;;;;9.77;8.43;;;9.80;99.90;;;;;;5097272;28;21019;-69
2022/11/08 04:07:49;;;;;;;10.37;9.20;;;9.90;99.90;;;;;;5093068;28;20829;-68
2022/11/08 04:10:16;;;;;;;9.40;8.60;;;10.00;99.90;;;;;;5098474;28;20930;-67
2022/11/08 04:15:30;;;;;;;10.63;8.50;;;10.00;99.90;;;;;;5097366;28;20452;-67
2022/11/08 04:23:31;;;;;;;8.40;7.80;;;10.10;99.90;;;;;;5095071;28;20496;-70
2022/11/08 04:25:59;;;;;;;11.03;7.90;;;10.10;99.90;;;;;;5091848;28;20461;-68
2022/11/08 04:28:27;;;;;;;9.63;8.93;;;10.10;99.90;;;;;;5097734;28;20775;-67
2022/11/08 04:30:55;;;;;;;10.37;9.67;;;10.00;99.90;;;;;;5095085;28;20454;-68
2022/11/08 04:33:23;;;;;;;12.40;9.40;;;9.90;99.90;;;;;;5093931;28;20484;-68
2022/11/08 04:35:51;;;;;;;10.57;9.30;;;9.90;99.90;;;;;;5097091;28;21049;-70
2022/11/08 04:38:18;;;;;;;13.30;9.07;;;9.90;99.90;;;;;;5099049;28;20469;-68
2022/11/08 04:40:47;;;;;;;9.50;8.70;;;9.90;99.90;;;;;;5097018;28;21030;-67
2022/11/08 04:43:14;;;;;;;12.90;9.03;;;9.90;99.90;;;;;;5100251;28;20465;-67
2022/11/08 04:45:41;;;;;;;9.97;9.27;;;9.80;99.90;;;;;;5093652;28;20568;-67
2022/11/08 04:48:08;;;;;;;10.50;9.47;;;9.90;99.90;;;;;;5097863;28;20468;-68
2022/11/08 04:50:36;;;;;;;9.50;8.60;;;9.80;99.90;;;;;;5097541;28;20768;-67
2022/11/08 04:53:03;;;;;;;14.17;9.87;;;9.80;99.90;;;;;;5100850;28;20524;-68
2022/11/08 04:55:30;;;;;;;10.47;9.27;;;9.90;99.90;;;;;;5101357;28;20982;-68
2022/11/08 04:57:59;;;;;;;10.83;9.83;;;9.90;99.90;;;;;;5096038;28;20468;-68
2022/11/08 05:00:26;;;;;;;9.50;8.80;;;9.90;99.90;;;;;;5097145;28;20820;-68
2022/11/08 05:02:53;;;;;;;13.63;9.37;;;9.90;99.90;;;;;;5090039;28;20548;-68
2022/11/08 05:05:21;;;;;;;16.70;9.80;;;9.90;99.90;;;;;;5096027;28;20460;-67
2022/11/08 05:07:48;;;;;;;12.10;10.53;;;10.00;99.90;;;;;;5096725;28;20816;-69
2022/11/08 05:10:15;;;;;;;10.47;9.67;;;10.00;99.90;;;;;;5094850;28;20461;-70
2022/11/08 05:12:42;;;;;;;10.17;9.27;;;9.90;99.90;;;;;;5090380;28;20468;-69
2022/11/08 05:15:11;;;;;;;10.47;9.30;;;10.00;99.90;;;;;;5093835;28;20959;-68
2022/11/08 05:17:38;;;;;;;22.57;10.53;;;10.00;99.90;;;;;;5098806;28;20869;-69
2022/11/08 05:25:39;;;;;;;12.47;9.40;;;10.00;99.90;;;;;;5088263;28;20461;-68
2022/11/08 05:28:05;;;;;;;10.33;9.73;;;10.00;99.90;;;;;;5100545;28;20551;-68
2022/11/08 05:30:35;;;;;;;11.37;10.37;;;9.90;99.90;;;;;;5097836;28;20465;-68
2022/11/08 05:33:02;;;;;;;10.90;9.80;;;9.90;99.90;;;;;;5094144;28;20465;-69
2022/11/08 05:35:28;;;;;;;10.83;9.73;;;9.90;99.90;;;;;;5097609;28;21335;-67
2022/11/08 05:37:55;;;;;;;11.37;10.07;;;10.00;99.90;;;;;;5094593;28;21082;-68
2022/11/08 05:40:22;;;;;;;10.83;9.90;;;9.90;99.90;;;;;;5094710;28;20472;-67
2022/11/08 05:42:49;;;;;;;10.90;9.80;;;9.90;99.90;;;;;;5102111;28;20556;-68
2022/11/08 05:45:16;;;;;;;12.03;10.80;;;9.90;99.90;;;;;;5095294;28;20469;-68
2022/11/08 05:47:48;;;;;;;11.23;9.50;;;9.90;99.90;;;;;;5093000;28;20456;-69
2022/11/08 05:50:15;;;;;;;12.03;10.90;;;10.00;99.90;;;;;;5093823;28;20697;-68
2022/11/08 05:52:42;;;;;;;10.53;9.63;;;9.90;99.90;;;;;;5101506;28;20464;-69
2022/11/08 05:55:09;;;;;;;11.47;10.37;;;10.00;99.90;;;;;;5098414;28;20511;-67
2022/11/08 05:57:36;;;;;;;11.47;10.40;;;10.00;99.90;;;;;;5101082;28;20453;-69
2022/11/08 06:00:04;;;;;;;9.90;9.20;;;10.00;99.90;;;;;;5093407;28;20460;-69
2022/11/08 06:02:33;;;;;;;15.80;10.40;;;10.00;99.90;;;;;;5097680;28;20472;-68
2022/11/08 06:05:01;;;;;;;12.23;11.13;;;10.00;99.90;;;;;;5093882;28;20472;-69
2022/11/08 06:07:28;;;;;;;16.27;10.97;;;10.00;99.90;;;;;;5097469;28;20462;-68
2022/11/08 06:09:56;;;;;;;11.70;10.60;;;10.00;99.90;;;;;;5095262;28;20592;-70
2022/11/08 06:12:23;;;;;;;12.60;11.63;;;10.00;99.90;;;;;;5095238;28;20699;-68
2022/11/08 06:14:50;;;;;;;11.80;10.70;;;9.90;99.90;;;;;;5100089;28;20500;-68
2022/11/08 06:17:16;;;;;;;11.50;10.83;;;9.90;99.90;;;;;;5098199;28;20459;-68
2022/11/08 06:19:44;;;;;;;12.60;11.50;;;9.90;99.90;;;;;;5092125;28;20537;-71
2022/11/08 06:22:12;;;;;;;12.40;11.40;;;9.90;99.90;;;;;;5091233;28;21011;-68
2022/11/08 06:24:39;;;;;;;12.03;11.03;;;9.90;99.90;;;;;;5098545;28;21039;-70
2022/11/08 06:27:06;;;;;;;12.40;10.97;;;9.90;99.90;;;;;;5091940;28;20458;-68
2022/11/08 06:29:32;;;;;;;12.00;10.80;;;10.00;99.90;;;;;;5098039;28;20848;-70
2022/11/08 06:31:59;;;;;;;13.17;11.77;;;10.00;99.90;;;;;;5102638;28;20471;-69
2022/11/08 06:34:26;;;;;;;13.37;12.10;;;10.00;99.90;;;;;;5100356;28;20492;-68
2022/11/08 06:36:55;;;;;;;13.17;12.13;;;10.00;99.90;;;;;;5095709;28;20486;-68
2022/11/08 06:39:24;;;;;;;13.47;10.93;;;10.00;99.90;;;;;;5098650;28;20491;-70
2022/11/08 06:41:50;;;;;;;12.17;11.13;;;9.90;99.90;;;;;;5101465;28;20464;-68
2022/11/08 06:44:17;;;;;;;12.87;11.60;;;9.90;99.90;;;;;;5095618;28;20785;-68
2022/11/08 06:46:44;;;;;;;12.63;11.23;;;10.00;99.90;;;;;;5098204;28;20460;-68
2022/11/08 06:49:11;;;;;;;12.63;11.40;;;9.90;99.90;;;;;;5093829;28;20470;-69
2022/11/08 06:51:37;;;;;;;12.80;11.40;;;9.90;99.90;;;;;;5093849;28;20808;-68
2022/11/08 06:54:06;;;;;;;12.23;11.33;;;9.90;99.90;;;;;;5097645;28;21091;-70
2022/11/08 06:56:34;;;;;;;15.93;11.40;;;9.90;99.90;;;;;;5099350;28;20485;-68
2022/11/08 06:59:02;;;;;;;12.77;12.07;;;9.90;99.90;;;;;;5091007;28;20481;-69
2022/11/08 07:01:29;;;;;;;11.87;10.97;;;9.90;99.90;;;;;;5100849;28;20461;-68
2022/11/08 07:03:55;;;;;;;12.43;11.40;;;9.90;99.90;;;;;;5091828;28;20469;-68
2022/11/08 07:06:22;;;;;;;13.37;11.50;;;10.00;99.90;;;;;;5096924;28;20811;-68
2022/11/08 07:08:49;;;;;;;14.20;11.00;;;10.00;99.90;;;;;;5098624;28;20519;-70
2022/11/08 07:11:16;;;;;;;12.47;11.40;;;9.90;99.90;;;;;;5098419;28;20797;-68
2022/11/08 07:13:46;;;;;;;13.20;12.10;;;9.90;99.90;;;;;;5099827;28;20488;-70
2022/11/08 07:16:13;;;;;;;13.37;12.30;;;10.00;99.90;;;;;;5100828;28;20457;-68
2022/11/08 07:18:40;;;;;;;16.87;11.27;;;10.00;99.90;;;;;;5096367;28;20465;-68
2022/11/08 07:21:06;;;;;;;11.53;10.67;;;10.00;99.90;;;;;;5096075;28;20860;-68
2022/11/08 07:23:33;;;;;;;11.93;11.03;;;10.00;99.90;;;;;;5098664;28;21041;-68
2022/11/08 07:26:02;;;;;;;12.67;10.77;;;10.00;99.90;;;;;;5097674;28;20452;-67
2022/11/08 07:28:29;;;;;;;11.73;10.60;;;10.10;99.90;;;;;;5094260;28;20497;-70
2022/11/08 07:31:00;;;;;;;11.83;10.57;;;10.10;99.90;;;;;;5102471;28;20639;-67
2022/11/08 07:33:27;;;;;;;15.83;10.10;;;10.20;99.90;;;;;;5097111;28;20470;-68
2022/11/08 07:35:55;;;;;;;11.63;10.67;;;10.30;99.90;;;;;;5097655;28;20488;-69
2022/11/08 07:38:22;;;;;;;10.73;10.07;;;10.30;99.90;;;;;;5100548;28;20502;-68
2022/11/08 07:40:50;;;;;;;12.73;10.47;;;10.40;99.90;;;;;;5101518;28;20508;-69
2022/11/08 07:43:17;;;;;;;10.57;9.70;;;10.50;99.90;;;;;;5091090;28;20555;-68
2022/11/08 07:45:44;;;;;;;11.47;10.50;;;10.60;99.90;;;;;;5095193;28;20465;-68
2022/11/08 07:48:13;;;;;;;10.60;9.90;;;10.70;99.90;;;;;;5101551;28;20457;-68
2022/11/08 07:50:41;;;;;;;11.23;10.43;;;10.70;99.90;;;;;;5094264;28;20454;-68
2022/11/08 07:53:08;;;;;;;10.30;9.70;;;10.80;99.90;;;;;;5095219;28;20991;-68
2022/11/08 07:55:36;;;;;;;11.40;10.60;;;10.90;99.90;;;;;;5099312;28;20492;-69
2022/11/08 07:58:04;;;;;;;15.53;11.40;;;10.90;99.90;;;;;;5098210;28;20882;-70
2022/11/08 08:00:32;;;;;;;12.30;11.40;;;11.00;99.90;;;;;;5094557;28;20445;-70
2022/11/08 08:02:59;;;;;;;12.13;11.17;;;11.10;99.90;;;;;;5099465;28;20856;-70
2022/11/08 08:05:29;;;;;;;12.97;11.73;;;11.10;99.90;;;;;;5094400;28;20875;-68
2022/11/08 08:07:57;;;;;;;12.90;11.80;;;11.20;99.90;;;;;;5097546;28;20852;-69
2022/11/08 08:10:24;;;;;;;12.33;11.53;;;11.30;99.90;;;;;;5092733;28;21245;-70
2022/11/08 08:12:51;;;;;;;13.17;12.23;;;11.30;99.90;;;;;;5099857;28;20931;-69
2022/11/08 08:15:18;;;;;;;14.27;12.70;;;11.40;99.90;;;;;;5100400;28;20547;-69
2022/11/08 08:17:45;;;;;;;14.57;13.17;;;11.40;99.90;;;;;;5097437;28;21059;-68
2022/11/08 08:20:13;;;;;;;12.67;11.80;;;11.40;99.90;;;;;;5096466;28;20892;-70
2022/11/08 08:22:45;;;;;;;15.20;12.77;;;11.50;99.90;;;;;;5092243;28;20865;-71
2022/11/08 08:25:12;;;;;;;14.00;12.90;;;11.60;99.90;;;;;;5095503;28;20454;-69
2022/11/08 08:27:39;;;;;;;14.03;12.60;;;11.60;99.90;;;;;;5095801;28;20549;-68
2022/11/08 08:30:07;;;;;;;13.20;12.20;;;11.70;99.90;;;;;;5093289;28;20462;-68
2022/11/08 08:32:34;;;;;;;13.40;12.60;;;11.80;99.90;;;;;;5101234;28;20465;-68
2022/11/08 08:35:01;;;;;;;13.57;12.77;;;11.90;99.90;;;;;;5098447;28;22593;-70
2022/11/08 08:37:28;;;;;;;15.13;13.70;;;11.90;99.90;;;;;;5101116;28;20824;-69
2022/11/08 08:39:56;;;;;;;13.70;12.80;;;12.00;99.90;;;;;;5095679;28;20457;-69
2022/11/08 08:42:24;;;;;;;14.40;13.10;;;12.00;99.90;;;;;;5095324;28;20461;-70
2022/11/08 08:44:50;;;;;;;14.47;13.57;;;12.00;99.90;;;;;;5094369;28;20546;-69
2022/11/08 08:47:17;;;;;;;15.43;14.07;;;12.10;99.90;;;;;;5103960;28;20453;-69
2022/11/08 08:49:44;;;;;;;16.37;13.73;;;12.20;99.90;;;;;;5097822;28;20464;-69
2022/11/08 08:52:11;;;;;;;15.27;13.90;;;12.30;99.90;;;;;;5091861;28;20466;-69
2022/11/08 08:54:38;;;;;;;18.23;14.03;;;12.30;99.90;;;;;;5090956;28;20486;-69
2022/11/08 08:57:06;;;;;;;14.20;13.40;;;12.40;99.90;;;;;;5096210;28;20552;-69
2022/11/08 08:59:33;;;;;;;14.73;13.70;;;12.50;99.90;;;;;;5093476;28;20469;-69
2022/11/08 09:01:59;;;;;;;14.93;13.60;;;12.60;99.90;;;;;;5089624;28;20477;-70
2022/11/08 09:04:27;;;;;;;14.50;13.70;;;12.70;99.90;;;;;;5092786;28;20573;-70
2022/11/08 09:06:53;;;;;;;16.30;14.63;;;12.70;99.90;;;;;;5090709;28;20465;-69
2022/11/08 09:09:21;;;;;;;14.47;13.67;;;12.70;99.90;;;;;;5091474;28;20461;-70
2022/11/08 09:11:48;;;;;;;15.40;14.20;;;12.70;99.90;;;;;;5094438;28;20462;-69
2022/11/08 09:14:16;;;;;;;15.43;14.43;;;12.80;99.90;;;;;;5098863;28;21206;-69
2022/11/08 09:16:43;;;;;;;15.30;14.10;;;12.90;99.90;;;;;;5098229;28;20462;-69
2022/11/08 09:19:10;;;;;;;16.60;15.17;;;12.90;99.90;;;;;;5095305;28;20550;-69
2022/11/08 09:21:37;;;;;;;15.10;14.20;;;12.90;99.90;;;;;;5094035;28;20821;-71
2022/11/08 09:24:04;;;;;;;15.80;14.70;;;13.10;99.90;;;;;;5096833;28;20943;-69
2022/11/08 09:26:30;;;;;;;15.53;14.53;;;13.20;99.90;;;;;;5094445;28;20464;-69
2022/11/08 09:28:57;;;;;;;15.00;14.10;;;13.30;99.90;;;;;;5090586;28;20464;-69
2022/11/08 09:31:25;;;;;;;16.90;15.20;;;13.40;99.90;;;;;;5093677;28;20465;-70
2022/11/08 09:33:52;;;;;;;16.20;15.00;;;13.50;99.90;;;;;;5091941;28;20453;-71
2022/11/08 09:36:19;;;;;;;16.13;15.00;;;13.70;99.90;;;;;;5092665;28;20842;-68
2022/11/08 09:38:45;;;;;;;15.63;14.33;;;13.80;99.90;;;;;;5093075;28;20457;-69
2022/11/08 09:41:34;;;;;;;15.53;14.63;;;13.80;99.90;;;;;;5096333;28;20829;-69
2022/11/08 09:44:14;;;;;;;17.03;15.47;;;13.80;99.90;;;;;;5091208;28;20460;-69
2022/11/08 09:46:48;;;;;;;15.73;14.80;;;14.00;99.90;;;;;;5093989;28;20461;-70
2022/11/08 09:49:20;;;;;;;16.57;15.57;;;14.00;99.90;;;;;;5091682;28;20565;-69
2022/11/08 09:51:47;;;;;;;17.17;15.60;;;14.10;99.90;;;;;;5092155;28;20461;-69
2022/11/08 09:54:20;;;;;;;17.00;15.40;;;14.10;99.90;;;;;;5092625;28;20562;-69
2022/11/08 09:56:47;;;;;;;18.07;16.57;;;14.20;99.90;;;;;;5089416;28;20476;-69
2022/11/08 09:59:26;;;;;;;16.77;15.30;;;14.20;99.90;;;;;;5090221;28;20547;-70
2022/11/08 10:01:54;;;;;;;33.37;16.37;;;14.30;99.90;;;;;;5088705;28;20453;-71
2022/11/08 10:04:23;;;;;;;18.93;15.07;;;14.40;99.90;;;;;;5092570;28;20979;-69
2022/11/08 10:07:02;;;;;;;25.47;15.60;;;14.60;99.90;;;;;;5099201;28;21419;-69
2022/11/08 10:09:59;;;;;;;17.43;15.73;;;14.70;99.90;;;;;;5093281;28;20666;-71
2022/11/08 10:12:37;;;;;;;18.87;15.50;;;14.70;99.90;;;;;;5095224;28;20470;-72
2022/11/08 10:15:19;;;;;;;18.33;16.17;;;14.80;99.90;;;;;;5097299;28;21051;-68
2022/11/08 10:18:00;;;;;;;20.57;15.50;;;14.80;99.90;;;;;;5099775;28;20891;-69
2022/11/08 10:20:37;;;;;;;16.53;15.10;;;14.90;99.90;;;;;;5099992;28;20895;-69
2022/11/08 10:23:17;;;;;;;17.80;15.03;;;15.00;99.90;;;;;;5092005;28;20466;-69
2022/11/08 10:25:47;;;;;;;17.73;16.27;;;15.20;99.90;;;;;;5099927;28;20464;-71
2022/11/08 10:28:17;;;;;;;16.67;15.27;;;15.50;99.90;;;;;;5100663;28;20890;-70
2022/11/08 10:30:48;;;;;;;16.57;15.00;;;15.60;99.90;;;;;;5093707;28;20465;-71
2022/11/08 10:33:20;;;;;;;15.80;14.77;;;15.60;99.90;;;;;;5100471;28;20476;-69
2022/11/08 10:35:53;;;;;;;16.80;15.20;;;15.70;99.90;;;;;;5097331;28;20886;-71
2022/11/08 10:38:23;;;;;;;16.70;15.20;;;15.80;99.90;;;;;;5102893;28;20475;-69
2022/11/08 10:40:56;;;;;;;16.57;15.27;;;16.00;99.90;;;;;;5099375;28;20466;-69
2022/11/08 10:43:30;;;;;;;17.53;16.13;;;16.00;99.90;;;;;;5096775;28;20461;-69
2022/11/08 10:45:57;;;;;;;16.83;15.47;;;16.00;99.90;;;;;;5093942;28;20464;-69
2022/11/08 10:48:25;;;;;;;21.87;16.13;;;16.10;99.90;;;;;;5095554;28;21220;-70
2022/11/08 10:50:54;;;;;;;21.83;15.77;;;16.30;99.90;;;;;;5100806;28;20551;-69
2022/11/08 10:53:25;;;;;;;18.57;16.77;;;16.50;99.90;;;;;;5099309;28;20561;-69
2022/11/08 10:55:58;;;;;;;17.03;15.83;;;16.60;99.90;;;;;;5092652;28;20504;-69
2022/11/08 10:58:32;;;;;;;17.37;16.07;;;16.70;99.90;;;;;;5097143;28;20472;-68
2022/11/08 11:01:02;;;;;;;21.13;16.37;;;16.80;99.90;;;;;;5096201;28;21237;-69
2022/11/08 11:03:30;;;;;;;17.50;16.30;;;17.30;99.90;;;;;;5098491;28;20821;-69
2022/11/08 11:06:02;;;;;;;17.73;16.20;;;17.50;99.90;;;;;;5096332;28;20457;-69
2022/11/08 11:08:29;;;;;;;21.23;16.93;;;17.30;99.90;;;;;;5092219;27;21120;-69
2022/11/08 11:11:13;;;;;;;18.23;17.03;;;17.60;99.90;;;;;;5093627;28;20553;-68
2022/11/08 11:13:40;;;;;;;17.40;16.03;;;17.90;99.90;;;;;;5101957;28;20535;-69
2022/11/08 11:16:14;;;;;;;17.73;16.33;;;18.00;99.90;;;;;;5099262;28;20489;-69
2022/11/08 11:18:47;;;;;;;17.10;15.80;;;17.80;99.90;;;;;;5095845;28;20465;-69
2022/11/08 11:21:17;;;;;;;17.10;15.90;;;17.50;99.90;;;;;;5092717;28;21401;-69
2022/11/08 11:23:46;;;;;;;16.50;15.50;;;17.40;99.90;;;;;;5090835;28;21244;-69
2022/11/08 11:26:28;;;;;;;18.43;15.87;;;17.40;99.90;;;;;;5094086;28;20460;-69
2022/11/08 11:29:07;;;;;;;17.60;15.43;;;17.30;99.90;;;;;;5090947;28;20456;-69
2022/11/08 11:31:37;;;;;;;16.93;15.53;;;17.20;99.90;;;;;;5096439;28;20896;-70
2022/11/08 11:34:27;;;;;;;16.87;15.17;;;17.30;99.90;;;;;;5099703;28;20949;-69
2022/11/08 11:36:59;;;;;;;16.43;15.30;;;17.20;99.90;;;;;;5098808;28;20510;-71
2022/11/08 11:39:32;;;;;;;17.07;15.67;;;17.10;99.90;;;;;;5093752;28;20485;-68
2022/11/08 11:42:06;;;;;;;16.57;15.33;;;17.10;99.90;;;;;;5091673;28;20458;-69
2022/11/08 11:44:39;;;;;;;16.97;15.40;;;17.40;99.90;;;;;;5096647;28;20855;-68
2022/11/08 11:47:15;;;;;;;16.10;14.90;;;17.60;99.90;;;;;;5096070;28;20458;-70
2022/11/08 11:49:45;;;;;;;16.10;15.00;;;17.60;99.90;;;;;;5087328;28;20453;-70
2022/11/08 11:52:16;;;;;;;18.57;14.70;;;17.80;99.90;;;;;;5095944;28;20456;-69
2022/11/08 11:54:45;;;;;;;16.43;15.43;;;18.00;99.90;;;;;;5095790;28;20486;-70
2022/11/08 11:57:22;;;;;;;16.53;15.33;;;18.10;99.90;;;;;;5094327;28;20497;-71
2022/11/08 12:00:01;;;;;;;16.83;15.83;;;18.40;99.90;;;;;;5095196;28;20462;-70
2022/11/08 12:03:14;;;;;;;16.30;15.40;;;18.50;99.90;;;;;;5092987;28;21427;-69
2022/11/08 12:06:09;;;;;;;16.80;15.80;;;18.80;99.90;;;;;;5020233;28;20567;-72
2022/11/08 12:08:49;;;;;;;16.53;15.03;;;18.90;99.90;;;;;;5018345;28;20960;-70
2022/11/08 12:11:31;;;;;;;17.00;15.40;;;19.00;99.90;;;;;;5080377;28;21096;-70
2022/11/08 12:14:15;;;;;;;17.50;16.03;;;19.00;99.90;;;;;;5097775;28;21054;-70
2022/11/08 12:16:50;;;;;;;16.73;15.50;;;19.50;99.90;;;;;;5097531;28;20580;-71
2022/11/08 12:19:30;;;;;;;16.63;15.70;;;19.40;99.90;;;;;;5095728;28;20464;-70
2022/11/08 12:22:12;;;;;;;17.53;15.77;;;19.20;99.90;;;;;;5091619;28;20587;-70
2022/11/08 12:24:48;;;;;;;16.30;15.30;;;19.00;99.90;;;;;;5096204;28;20475;-70
2022/11/08 12:27:24;;;;;;;16.20;15.30;;;18.90;99.90;;;;;;5094902;28;20468;-70
2022/11/08 12:30:01;;;;;;;16.20;15.20;;;18.70;99.90;;;;;;5092814;28;20510;-69
2022/11/08 12:32:43;;;;;;;16.17;15.27;;;18.50;99.90;;;;;;5095161;28;21109;-70
2022/11/08 12:35:24;;;;;;;16.80;16.00;;;18.70;99.90;;;;;;5089797;28;20486;-70
2022/11/08 12:38:03;;;;;;;16.90;15.90;;;19.20;99.90;;;;;;5092977;28;20940;-69
2022/11/08 12:40:38;;;;;;;17.10;15.90;;;19.40;99.90;;;;;;5091779;28;20462;-70
2022/11/08 12:43:29;;;;;;;16.83;15.80;;;19.60;99.90;;;;;;5094589;28;20557;-71
2022/11/08 12:46:07;;;;;;;18.43;16.30;;;19.50;99.90;;;;;;5091520;28;20472;-72
2022/11/08 12:48:49;;;;;;;16.40;15.50;;;19.50;99.90;;;;;;5095548;28;20458;-70
2022/11/08 12:51:22;;;;;;;16.60;15.50;;;19.50;99.90;;;;;;5090280;28;20469;-70
2022/11/08 12:53:58;;;;;;;16.30;15.40;;;19.40;99.90;;;;;;5096700;28;21262;-69
2022/11/08 12:56:30;;;;;;;16.03;14.97;;;19.20;99.90;;;;;;5095156;28;20480;-68
2022/11/08 12:58:59;;;;;;;17.20;15.70;;;19.20;99.90;;;;;;5094234;28;20468;-69
2022/11/08 13:01:26;;;;;;;16.50;15.40;;;19.10;99.90;;;;;;5095353;28;20938;-69
2022/11/08 13:04:19;;;;;;;15.80;14.80;;;19.10;99.90;;;;;;5092884;28;20468;-68
2022/11/08 13:06:53;;;;;;;15.90;14.70;;;19.20;99.90;;;;;;5092655;28;20462;-71
2022/11/08 13:09:33;;;;;;;15.70;14.70;;;19.20;99.90;;;;;;5087695;28;20467;-70
2022/11/08 13:12:07;;;;;;;16.03;15.13;;;19.20;99.90;;;;;;5099145;28;20466;-70
2022/11/08 13:14:34;;;;;;;15.60;14.73;;;19.20;99.90;;;;;;5094610;28;20458;-68